createdAt,value
2018-09-15T00:00:58.599Z,7.33
2018-09-15T00:03:26.418Z,7.53
2018-09-15T00:05:54.135Z,7.30
2018-09-15T00:08:21.806Z,8.33
2018-09-15T00:10:49.576Z,7.53
2018-09-15T00:13:18.056Z,7.83
2018-09-15T00:15:45.614Z,7.80
2018-09-15T00:18:14.577Z,8.33
2018-09-15T00:20:42.008Z,8.10
2018-09-15T00:23:10.434Z,7.60
2018-09-15T00:25:41.074Z,9.13
2018-09-15T00:28:09.268Z,8.80
2018-09-15T00:30:36.732Z,8.70
2018-09-15T00:33:04.364Z,9.13
2018-09-15T00:35:31.794Z,8.83
2018-09-15T00:37:59.250Z,8.83
2018-09-15T00:40:26.734Z,8.83
2018-09-15T00:42:54.224Z,10.00
2018-09-15T00:45:21.656Z,9.50
2018-09-15T00:47:49.369Z,9.27
2018-09-15T00:50:16.809Z,8.60
2018-09-15T00:52:44.257Z,9.80
2018-09-15T00:55:11.729Z,9.07
2018-09-15T00:57:39.148Z,9.77
2018-09-15T01:00:07.722Z,10.73
2018-09-15T01:02:35.477Z,8.93
2018-09-15T01:05:03.450Z,11.23
2018-09-15T01:07:30.942Z,12.13
2018-09-15T01:09:58.417Z,12.03
2018-09-15T01:12:25.922Z,12.50
2018-09-15T01:14:53.378Z,11.83
2018-09-15T01:17:20.808Z,14.17
2018-09-15T01:19:48.292Z,13.00
2018-09-15T01:22:15.964Z,13.90
2018-09-15T01:24:43.732Z,13.70
2018-09-15T01:27:11.179Z,14.40
2018-09-15T01:29:38.684Z,13.73
2018-09-15T01:32:06.105Z,13.70
2018-09-15T01:34:33.665Z,14.57
2018-09-15T01:37:01.340Z,14.33
2018-09-15T01:39:28.813Z,13.90
2018-09-15T01:41:56.246Z,15.07
2018-09-15T01:44:23.719Z,14.50
2018-09-15T01:46:51.180Z,14.73
2018-09-15T01:49:18.627Z,14.67
2018-09-15T01:51:46.142Z,14.40
2018-09-15T01:54:13.608Z,14.03
2018-09-15T01:56:41.047Z,14.50
2018-09-15T01:59:08.640Z,13.63
2018-09-15T02:01:36.182Z,14.57
2018-09-15T02:04:03.680Z,13.03
2018-09-15T02:06:31.133Z,13.70
2018-09-15T02:08:58.588Z,12.97
2018-09-15T02:11:26.021Z,13.40
2018-09-15T02:13:53.566Z,14.33
2018-09-15T02:16:21.024Z,13.50
2018-09-15T02:18:48.452Z,14.03
2018-09-15T02:21:15.940Z,13.47
2018-09-15T02:23:43.393Z,14.10
2018-09-15T02:26:11.772Z,14.83
2018-09-15T02:28:39.287Z,15.00
2018-09-15T02:31:07.225Z,16.10
2018-09-15T02:33:34.663Z,14.20
2018-09-15T02:36:02.111Z,15.70
2018-09-15T02:38:29.535Z,15.13
2018-09-15T02:40:56.983Z,15.37
2018-09-15T02:43:24.412Z,16.00
2018-09-15T02:45:51.937Z,16.47
2018-09-15T02:48:19.429Z,15.90
2018-09-15T02:50:46.889Z,15.70
2018-09-15T02:53:14.410Z,15.37
2018-09-15T02:55:41.913Z,16.20
2018-09-15T02:58:09.380Z,15.63
2018-09-15T03:00:36.847Z,14.50
2018-09-15T03:03:04.268Z,15.63
2018-09-15T03:05:31.727Z,15.53
2018-09-15T03:07:59.180Z,15.40
2018-09-15T03:10:27.837Z,15.03
2018-09-15T03:12:55.352Z,15.00
2018-09-15T03:15:22.845Z,14.87
2018-09-15T03:17:50.285Z,15.07
2018-09-15T03:20:17.845Z,15.40
2018-09-15T03:22:45.330Z,14.47
2018-09-15T03:25:12.790Z,14.03
2018-09-15T03:27:40.338Z,14.57
2018-09-15T03:30:07.868Z,14.60
2018-09-15T03:32:35.377Z,13.17
2018-09-15T03:35:02.851Z,13.27
2018-09-15T03:37:30.292Z,13.90
2018-09-15T03:39:57.827Z,14.50
2018-09-15T03:42:25.285Z,14.43
2018-09-15T03:44:52.713Z,13.30
2018-09-15T03:47:20.322Z,14.03
2018-09-15T03:49:47.746Z,13.90
2018-09-15T03:52:15.197Z,13.90
2018-09-15T03:54:42.663Z,14.00
2018-09-15T03:57:10.111Z,14.73
2018-09-15T03:59:37.553Z,13.70
2018-09-15T04:02:05.017Z,13.37
2018-09-15T04:04:32.436Z,14.53
2018-09-15T04:06:59.893Z,13.80
2018-09-15T04:09:27.337Z,13.10
2018-09-15T04:11:54.796Z,14.30
2018-09-15T04:14:22.211Z,14.13
2018-09-15T04:16:49.664Z,13.17
2018-09-15T04:19:17.097Z,13.30
2018-09-15T04:21:44.616Z,13.07
2018-09-15T04:24:12.099Z,12.43
2018-09-15T04:26:39.526Z,13.00
2018-09-15T04:29:07.012Z,12.63
2018-09-15T04:31:34.468Z,13.77
2018-09-15T04:34:01.906Z,13.10
2018-09-15T04:36:29.356Z,12.90
2018-09-15T04:38:56.874Z,12.83
2018-09-15T04:41:24.361Z,13.27
2018-09-15T04:43:51.907Z,13.17
2018-09-15T04:46:19.374Z,14.10
2018-09-15T04:48:47.265Z,13.10
2018-09-15T04:51:14.728Z,14.23
2018-09-15T04:53:42.200Z,13.63
2018-09-15T04:56:09.641Z,12.97
2018-09-15T04:58:37.168Z,13.37
2018-09-15T05:01:04.859Z,13.10
2018-09-15T05:03:32.368Z,12.87
2018-09-15T05:05:59.836Z,12.70
2018-09-15T05:08:27.444Z,13.70
2018-09-15T05:10:54.950Z,14.83
2018-09-15T05:13:22.420Z,14.23
2018-09-15T05:15:49.864Z,13.60
2018-09-15T05:18:17.424Z,12.33
2018-09-15T05:20:44.921Z,14.33
2018-09-15T05:23:12.383Z,14.07
2018-09-15T05:25:39.801Z,13.37
2018-09-15T05:28:07.248Z,14.10
2018-09-15T05:30:34.912Z,14.60
2018-09-15T05:33:02.373Z,13.80
2018-09-15T05:35:29.864Z,15.43
2018-09-15T05:37:57.396Z,14.27
2018-09-15T05:40:24.852Z,14.20
2018-09-15T05:42:52.343Z,14.13
2018-09-15T05:45:19.961Z,13.57
2018-09-15T05:47:47.401Z,13.47
2018-09-15T05:50:14.891Z,12.90
2018-09-15T05:52:42.368Z,13.23
2018-09-15T05:55:11.729Z,14.03
2018-09-15T05:57:39.190Z,12.90
2018-09-15T06:00:06.803Z,13.00
2018-09-15T06:02:34.410Z,12.97
2018-09-15T06:05:01.900Z,12.87
2018-09-15T06:07:29.528Z,13.70
2018-09-15T06:09:57.507Z,13.30
2018-09-15T06:12:24.967Z,13.60
2018-09-15T06:14:52.428Z,12.80
2018-09-15T06:17:20.085Z,12.60
2018-09-15T06:19:47.556Z,12.80
2018-09-15T06:22:15.008Z,12.73
2018-09-15T06:24:42.461Z,13.27
2018-09-15T06:27:09.897Z,12.63
2018-09-15T06:29:37.492Z,12.37
2018-09-15T06:32:05.029Z,11.80
2018-09-15T06:34:32.502Z,12.30
2018-09-15T06:36:59.955Z,10.70
2018-09-15T06:39:27.529Z,11.50
2018-09-15T06:41:54.963Z,12.20
2018-09-15T06:44:22.425Z,12.07
2018-09-15T06:46:49.958Z,11.90
2018-09-15T06:49:17.399Z,11.87
2018-09-15T06:51:44.916Z,11.10
2018-09-15T06:54:12.431Z,10.40
2018-09-15T06:56:39.881Z,11.03
2018-09-15T06:59:07.510Z,10.80
2018-09-15T07:01:38.180Z,10.37
2018-09-15T07:04:06.453Z,9.20
2018-09-15T07:06:33.871Z,10.00
2018-09-15T07:09:01.527Z,9.70
2018-09-15T07:11:28.976Z,9.60
2018-09-15T07:13:56.477Z,9.47
2018-09-15T07:16:23.910Z,9.67
2018-09-15T07:18:51.441Z,9.60
2018-09-15T07:21:18.958Z,10.23
2018-09-15T07:23:46.517Z,10.13
2018-09-15T07:26:13.941Z,9.57
2018-09-15T07:28:41.404Z,9.53
2018-09-15T07:31:09.233Z,10.87
2018-09-15T07:33:36.742Z,9.80
2018-09-15T07:36:04.508Z,9.23
2018-09-15T07:38:32.029Z,9.40
2018-09-15T07:40:59.462Z,9.20
2018-09-15T07:43:26.915Z,9.27
2018-09-15T07:45:54.485Z,8.50
2018-09-15T07:48:21.916Z,8.20
2018-09-15T07:50:49.372Z,8.37
2018-09-15T07:53:16.848Z,8.33
2018-09-15T07:55:44.305Z,8.20
2018-09-15T07:58:11.744Z,7.97
2018-09-15T08:00:39.221Z,8.10
2018-09-15T08:03:06.745Z,8.87
2018-09-15T08:05:34.192Z,8.13
2018-09-15T08:08:01.737Z,7.40
2018-09-15T08:10:29.321Z,7.70
2018-09-15T08:12:56.760Z,6.37
2018-09-15T08:15:24.232Z,8.20
2018-09-15T08:17:51.681Z,7.13
2018-09-15T08:20:19.147Z,7.50
2018-09-15T08:22:46.604Z,7.80
2018-09-15T08:25:14.162Z,6.63
2018-09-15T08:27:41.635Z,6.47
2018-09-15T08:30:09.179Z,6.20
2018-09-15T08:32:36.607Z,6.27
2018-09-15T08:35:04.225Z,5.80
2018-09-15T08:37:31.680Z,5.93
2018-09-15T08:39:59.313Z,6.10
2018-09-15T08:42:26.784Z,5.50
2018-09-15T08:44:54.292Z,5.37
2018-09-15T08:47:21.796Z,5.23
2018-09-15T08:49:49.261Z,4.90
2018-09-15T08:52:16.765Z,4.80
2018-09-15T08:54:44.234Z,4.30
2018-09-15T08:57:11.820Z,3.90
2018-09-15T08:59:39.376Z,3.50
2018-09-15T09:02:11.652Z,3.73
2018-09-15T09:04:39.115Z,3.80
2018-09-15T09:07:06.627Z,3.60
2018-09-15T09:09:34.084Z,3.93
2018-09-15T09:12:01.536Z,3.33
2018-09-15T09:14:28.973Z,3.00
2018-09-15T09:16:56.433Z,2.97
2018-09-15T09:19:23.889Z,2.63
2018-09-15T09:21:51.348Z,3.00
2018-09-15T09:24:18.753Z,2.87
2018-09-15T09:26:46.236Z,3.50
2018-09-15T09:29:13.649Z,3.00
2018-09-15T09:31:41.109Z,3.03
2018-09-15T09:34:08.628Z,3.23
2018-09-15T09:36:36.061Z,3.07
2018-09-15T09:39:06.277Z,3.17
2018-09-15T09:41:33.814Z,3.20
2018-09-15T09:44:01.193Z,2.83
2018-09-15T09:46:28.657Z,3.23
2018-09-15T09:48:56.188Z,3.20
2018-09-15T09:51:23.747Z,3.10
2018-09-15T09:53:51.206Z,2.90
2018-09-15T09:56:18.701Z,2.90
2018-09-15T09:58:46.208Z,3.07
2018-09-15T10:01:19.365Z,3.40
2018-09-15T10:03:46.800Z,3.03
2018-09-15T10:06:14.251Z,3.33
2018-09-15T10:08:41.739Z,2.80
2018-09-15T10:11:09.204Z,3.00
2018-09-15T10:13:36.668Z,3.00
2018-09-15T10:16:04.289Z,2.80
2018-09-15T10:18:31.672Z,3.07
2018-09-15T10:20:59.183Z,3.27
2018-09-15T10:23:26.637Z,2.90
2018-09-15T10:25:54.181Z,3.03
2018-09-15T10:28:21.596Z,2.60
2018-09-15T10:30:49.080Z,3.70
2018-09-15T10:33:16.512Z,3.67
2018-09-15T10:35:43.999Z,3.37
2018-09-15T10:38:11.475Z,3.30
2018-09-15T10:40:38.918Z,3.10
2018-09-15T10:43:06.431Z,3.10
2018-09-15T10:45:33.917Z,3.30
2018-09-15T10:48:01.373Z,3.70
2018-09-15T10:50:28.872Z,3.30
2018-09-15T10:52:56.356Z,3.27
2018-09-15T10:55:23.801Z,2.80
2018-09-15T10:57:51.276Z,3.33
2018-09-15T11:00:19.445Z,3.30
2018-09-15T11:02:46.976Z,3.20
2018-09-15T11:05:14.464Z,3.20
2018-09-15T11:07:41.898Z,3.13
2018-09-15T11:10:09.390Z,3.43
2018-09-15T11:12:36.872Z,2.90
2018-09-15T11:15:04.417Z,3.03
2018-09-15T11:17:31.903Z,3.43
2018-09-15T11:19:59.455Z,2.93
2018-09-15T11:22:27.003Z,2.80
2018-09-15T11:24:54.404Z,3.30
2018-09-15T11:27:21.896Z,3.27
2018-09-15T11:29:49.444Z,3.20
2018-09-15T11:32:16.928Z,3.17
2018-09-15T11:34:44.401Z,4.00
2018-09-15T11:37:11.884Z,3.53
2018-09-15T11:39:39.308Z,3.30
2018-09-15T11:42:06.795Z,3.57
2018-09-15T11:44:34.225Z,3.70
2018-09-15T11:47:01.714Z,3.20
2018-09-15T11:49:29.174Z,2.90
2018-09-15T11:51:56.663Z,3.53
2018-09-15T11:54:24.219Z,3.73
2018-09-15T11:56:51.713Z,3.37
2018-09-15T11:59:19.322Z,3.10
2018-09-15T12:01:46.826Z,3.50
2018-09-15T12:04:14.301Z,3.40
2018-09-15T12:06:41.878Z,3.50
2018-09-15T12:09:09.662Z,3.50
2018-09-15T12:11:37.109Z,3.20
2018-09-15T12:14:04.591Z,2.60
2018-09-15T12:16:32.042Z,3.10
2018-09-15T12:18:59.593Z,2.67
2018-09-15T12:21:27.112Z,2.63
2018-09-15T12:23:54.658Z,2.60
2018-09-15T12:26:22.170Z,2.23
2018-09-15T12:28:49.720Z,2.57
2018-09-15T12:31:17.320Z,2.80
2018-09-15T12:33:44.812Z,2.40
2018-09-15T12:36:12.453Z,2.30
2018-09-15T12:38:40.012Z,1.67
2018-09-15T12:41:07.554Z,1.40
2018-09-15T12:43:34.981Z,1.60
2018-09-15T12:46:02.512Z,1.80
2018-09-15T12:48:29.969Z,2.27
2018-09-15T12:50:57.551Z,1.80
2018-09-15T12:53:25.021Z,2.17
2018-09-15T12:55:52.495Z,1.70
2018-09-15T12:58:19.984Z,2.60
2018-09-15T13:00:47.521Z,1.90
2018-09-15T13:03:15.012Z,1.30
2018-09-15T13:05:42.491Z,1.20
2018-09-15T13:08:10.123Z,1.47
2018-09-15T13:10:37.644Z,1.30
2018-09-15T13:13:05.156Z,1.10
2018-09-15T13:15:32.755Z,1.23
2018-09-15T13:18:00.232Z,1.60
2018-09-15T13:20:27.735Z,1.30
2018-09-15T13:22:55.223Z,1.50
2018-09-15T13:25:22.652Z,1.60
2018-09-15T13:27:50.110Z,1.10
2018-09-15T13:30:17.776Z,1.50
2018-09-15T13:32:45.196Z,1.70
2018-09-15T13:35:12.675Z,1.30
2018-09-15T13:37:40.157Z,1.00
2018-09-15T13:40:07.618Z,0.97
2018-09-15T13:42:35.065Z,1.10
2018-09-15T13:45:02.671Z,1.80
2018-09-15T13:47:30.207Z,1.30
2018-09-15T13:49:57.686Z,1.10
2018-09-15T13:52:25.169Z,1.53
2018-09-15T13:54:52.605Z,1.20
2018-09-15T13:57:20.097Z,1.33
2018-09-15T13:59:47.539Z,1.90
2018-09-15T14:02:15.052Z,1.17
2018-09-15T14:04:42.520Z,1.23
2018-09-15T14:07:10.032Z,1.33
2018-09-15T14:09:43.475Z,1.60
2018-09-15T14:12:05.037Z,1.60
2018-09-15T14:14:32.479Z,1.67
2018-09-15T14:16:59.968Z,1.50
2018-09-15T14:19:27.575Z,1.50
2018-09-15T14:21:55.140Z,2.40
2018-09-15T14:24:22.557Z,1.50
2018-09-15T14:26:50.038Z,1.40
2018-09-15T14:29:17.605Z,1.50
2018-09-15T14:31:45.119Z,1.40
2018-09-15T14:34:12.559Z,1.40
2018-09-15T14:36:40.050Z,1.20
2018-09-15T14:39:08.997Z,1.60
2018-09-15T14:41:36.423Z,1.40
2018-09-15T14:44:03.984Z,1.87
2018-09-15T14:46:31.544Z,1.77
2018-09-15T14:48:59.194Z,1.70
2018-09-15T14:51:26.676Z,1.57
2018-09-15T14:53:54.092Z,1.90
2018-09-15T14:56:21.602Z,1.67
2018-09-15T14:58:49.133Z,1.70
2018-09-15T15:01:16.650Z,1.63
2018-09-15T15:03:44.075Z,1.90
2018-09-15T15:06:11.588Z,1.47
2018-09-15T15:08:38.997Z,1.50
2018-09-15T15:11:06.929Z,1.50
2018-09-15T15:13:34.407Z,1.70
2018-09-15T15:16:01.857Z,1.70
2018-09-15T15:18:29.556Z,1.80
2018-09-15T15:20:56.980Z,1.70
2018-09-15T15:23:24.467Z,1.77
2018-09-15T15:25:51.897Z,1.97
2018-09-15T15:28:19.433Z,1.90
2018-09-15T15:30:46.950Z,1.80
2018-09-15T15:33:14.476Z,2.30
2018-09-15T15:35:42.034Z,1.90
2018-09-15T15:38:09.533Z,1.50
2018-09-15T15:40:37.128Z,1.57
2018-09-15T15:43:04.833Z,1.60
2018-09-15T15:45:32.297Z,1.73
2018-09-15T15:47:59.857Z,1.40
2018-09-15T15:50:27.491Z,1.90
2018-09-15T15:52:55.023Z,1.50
2018-09-15T15:55:22.581Z,1.40
2018-09-15T15:57:50.137Z,1.67
2018-09-15T16:00:18.053Z,1.60
2018-09-15T16:02:45.668Z,1.53
2018-09-15T16:05:13.331Z,1.90
2018-09-15T16:07:40.941Z,1.60
2018-09-15T16:10:08.757Z,2.00
2018-09-15T16:12:36.312Z,2.40
2018-09-15T16:15:04.039Z,1.80
2018-09-15T16:17:31.517Z,1.60
2018-09-15T16:19:59.172Z,1.80
2018-09-15T16:22:26.640Z,2.03
2018-09-15T16:24:54.212Z,1.70
2018-09-15T16:27:22.048Z,1.97
2018-09-15T16:29:49.494Z,1.93
2018-09-15T16:32:16.969Z,2.07
2018-09-15T16:34:44.856Z,2.03
2018-09-15T16:37:12.926Z,1.80
2018-09-15T16:39:40.452Z,2.40
2018-09-15T16:42:08.003Z,2.57
2018-09-15T16:44:35.533Z,2.00
2018-09-15T16:47:03.266Z,1.87
2018-09-15T16:49:30.766Z,1.77
2018-09-15T16:51:58.715Z,1.60
2018-09-15T16:54:26.160Z,1.90
2018-09-15T16:56:53.691Z,1.50
2018-09-15T16:59:21.185Z,2.20
2018-09-15T17:01:48.665Z,2.13
2018-09-15T17:04:16.159Z,1.70
2018-09-15T17:06:43.629Z,1.60
2018-09-15T17:09:11.960Z,1.70
2018-09-15T17:11:39.469Z,1.60
2018-09-15T17:14:06.984Z,1.80
2018-09-15T17:16:34.494Z,1.60
2018-09-15T17:19:02.216Z,1.67
2018-09-15T17:21:29.933Z,1.90
2018-09-15T17:23:57.472Z,1.80
2018-09-15T17:26:28.867Z,1.77
2018-09-15T17:28:56.377Z,1.70
2018-09-15T17:31:23.936Z,2.20
2018-09-15T17:33:51.359Z,1.87
2018-09-15T17:36:18.804Z,2.00
2018-09-15T17:38:46.304Z,1.87
2018-09-15T17:41:13.765Z,2.47
2018-09-15T17:43:41.210Z,2.13
2018-09-15T17:46:08.701Z,2.00
2018-09-15T17:48:36.147Z,3.07
2018-09-15T17:51:03.705Z,3.30
2018-09-15T17:53:31.404Z,3.13
2018-09-15T17:55:58.868Z,3.57
2018-09-15T17:58:26.353Z,3.70
2018-09-15T18:00:53.780Z,3.20
2018-09-15T18:03:21.255Z,2.67
2018-09-15T18:05:48.771Z,2.03
2018-09-15T18:08:16.264Z,1.80
2018-09-15T18:10:43.755Z,2.50
2018-09-15T18:13:11.269Z,2.27
2018-09-15T18:15:38.759Z,2.20
2018-09-15T18:18:06.272Z,2.13
2018-09-15T18:20:33.760Z,2.10
2018-09-15T18:23:01.462Z,1.80
2018-09-15T18:25:29.007Z,2.10
2018-09-15T18:27:56.632Z,2.40
2018-09-15T18:30:24.232Z,2.30
2018-09-15T18:32:51.669Z,2.67
2018-09-15T18:35:20.034Z,2.37
2018-09-15T18:37:47.524Z,2.10
2018-09-15T18:40:15.060Z,1.93
2018-09-15T18:42:42.561Z,2.70
2018-09-15T18:45:10.073Z,3.90
2018-09-15T18:47:37.504Z,8.67
2018-09-15T18:50:05.376Z,5.80
2018-09-15T18:52:32.977Z,6.10
2018-09-15T18:55:00.465Z,6.77
2018-09-15T18:57:27.976Z,5.70
2018-09-15T18:59:55.523Z,5.43
2018-09-15T19:02:22.973Z,4.03
2018-09-15T19:04:50.721Z,3.80
2018-09-15T19:07:18.299Z,4.17
2018-09-15T19:09:45.736Z,3.60
2018-09-15T19:12:13.237Z,3.80
2018-09-15T19:14:40.672Z,3.40
2018-09-15T19:17:08.161Z,4.50
2018-09-15T19:19:35.604Z,3.67
2018-09-15T19:22:03.171Z,4.80
2018-09-15T19:24:30.693Z,4.00
2018-09-15T19:26:58.252Z,3.77
2018-09-15T19:29:25.754Z,4.17
2018-09-15T19:31:53.209Z,4.20
2018-09-15T19:34:20.827Z,4.33
2018-09-15T19:36:48.348Z,4.20
2018-09-15T19:39:15.826Z,4.20
2018-09-15T19:41:43.328Z,4.80
2018-09-15T19:44:10.770Z,4.07
2018-09-15T19:46:38.862Z,4.10
2018-09-15T19:49:07.173Z,4.83
2018-09-15T19:51:34.629Z,4.00
2018-09-15T19:54:02.153Z,3.17
2018-09-15T19:56:29.596Z,3.60
2018-09-15T19:58:57.229Z,2.73
2018-09-15T20:01:24.689Z,3.80
2018-09-15T20:03:52.126Z,3.83
2018-09-15T20:06:19.745Z,2.90
2018-09-15T20:08:47.508Z,2.40
2018-09-15T20:11:15.007Z,2.80
2018-09-15T20:13:42.523Z,2.23
2018-09-15T20:16:09.027Z,2.37
2018-09-15T20:18:35.481Z,2.40
2018-09-15T20:21:01.998Z,2.40
2018-09-15T20:23:29.483Z,2.23
2018-09-15T20:25:57.064Z,2.30
2018-09-15T20:28:24.554Z,2.40
2018-09-15T20:30:52.051Z,2.27
2018-09-15T20:33:19.661Z,2.37
2018-09-15T20:35:47.175Z,2.90
2018-09-15T20:38:14.619Z,2.30
2018-09-15T20:40:42.097Z,2.30
2018-09-15T20:43:09.532Z,2.60
2018-09-15T20:45:36.994Z,2.27
2018-09-15T20:48:04.597Z,2.77
2018-09-15T20:50:32.073Z,2.10
2018-09-15T20:52:59.508Z,2.90
2018-09-15T20:55:27.035Z,2.20
2018-09-15T20:57:54.474Z,2.40
2018-09-15T21:00:22.039Z,2.40
2018-09-15T21:02:49.541Z,2.60
2018-09-15T21:05:17.064Z,2.47
2018-09-15T21:07:44.624Z,2.40
2018-09-15T21:10:12.201Z,2.60
2018-09-15T21:12:39.742Z,2.50
2018-09-15T21:15:07.291Z,2.30
2018-09-15T21:17:34.745Z,2.53
2018-09-15T21:20:02.248Z,3.10
2018-09-15T21:22:29.726Z,3.43
2018-09-15T21:24:57.198Z,3.00
2018-09-15T21:27:24.767Z,3.00
2018-09-15T21:29:52.348Z,2.80
2018-09-15T21:32:19.833Z,3.07
2018-09-15T21:34:47.626Z,2.90
2018-09-15T21:37:15.127Z,3.70
2018-09-15T21:39:42.610Z,3.80
2018-09-15T21:42:10.064Z,3.93
2018-09-15T21:44:37.486Z,3.10
2018-09-15T21:47:05.166Z,3.77
2018-09-15T21:49:32.592Z,3.67
2018-09-15T21:52:00.077Z,4.00
2018-09-15T21:54:27.522Z,4.03
2018-09-15T21:56:55.001Z,4.07
2018-09-15T21:59:22.426Z,4.50
2018-09-15T22:01:49.919Z,4.33
2018-09-15T22:04:21.638Z,4.70
2018-09-15T22:06:50.488Z,4.27
2018-09-15T22:09:18.044Z,4.07
2018-09-15T22:11:45.521Z,4.37
2018-09-15T22:14:13.119Z,4.00
2018-09-15T22:16:41.093Z,4.87
2018-09-15T22:19:08.589Z,3.90
2018-09-15T22:21:36.248Z,5.30
2018-09-15T22:24:03.813Z,3.60
2018-09-15T22:26:31.475Z,4.17
2018-09-15T22:28:58.979Z,4.60
2018-09-15T22:31:26.689Z,3.70
2018-09-15T22:33:54.161Z,4.47
2018-09-15T22:36:21.620Z,4.07
2018-09-15T22:38:49.119Z,4.53
2018-09-15T22:41:16.977Z,4.70
2018-09-15T22:43:44.408Z,5.00
2018-09-15T22:46:11.840Z,4.73
2018-09-15T22:48:39.304Z,5.03
2018-09-15T22:51:06.916Z,4.70
2018-09-15T22:53:34.479Z,5.80
2018-09-15T22:56:01.910Z,5.00
2018-09-15T22:58:29.398Z,5.10
2018-09-15T23:00:56.915Z,5.40
2018-09-15T23:03:24.422Z,5.70
2018-09-15T23:05:51.900Z,4.90
2018-09-15T23:08:19.407Z,5.43
2018-09-15T23:10:46.867Z,5.40
2018-09-15T23:13:14.336Z,5.70
2018-09-15T23:15:41.790Z,5.30
2018-09-15T23:18:09.262Z,5.90
2018-09-15T23:20:36.805Z,6.10
2018-09-15T23:23:04.481Z,6.27
2018-09-15T23:25:31.960Z,6.27
2018-09-15T23:27:59.579Z,4.87
2018-09-15T23:30:27.049Z,5.50
2018-09-15T23:32:54.528Z,4.90
2018-09-15T23:35:22.023Z,5.13
2018-09-15T23:37:49.820Z,5.20
2018-09-15T23:40:17.256Z,5.93
2018-09-15T23:42:44.737Z,5.63
2018-09-15T23:45:12.228Z,5.00
2018-09-15T23:47:39.649Z,5.47
2018-09-15T23:50:07.176Z,5.93
2018-09-15T23:52:34.621Z,5.83
2018-09-15T23:55:02.497Z,5.00
2018-09-15T23:57:29.985Z,5.23
2018-09-15T23:59:57.548Z,5.60
